Terminal Aerodrome Forecast
Issued by NWS

Home | Current Version | Previous Version | Text Only | Print | Product List | Glossary On
Versions: 1 2 3 4 5 6 7 8 9 10 11 12 13 14 15 16
000
FTUS45 KABQ 181700
TAFLVS
TAF
KLVS 181725Z 1818/1918 20022G32KT P6SM BKN250
     FM190200 20016KT P6SM SCT150 BKN200
     FM190900 21012KT P6SM SCT060 BKN100=

USA.gov is the U.S. government's official web portal to all federal, state and local government web resources and services.